sensor_id;sensor_type;location;lat;lon;timestamp;pressure;altitude;pressure_sealevel;temperature
77385;BMP280;66444;49.680;18.538;2023-07-28T00:00:45;96751.75344863615;;;19.95932503514923
77385;BMP280;66444;49.680;18.538;2023-07-28T00:05:52;96741.80149820684;;;19.92886680988595
77385;BMP280;66444;49.680;18.538;2023-07-28T00:10:59;96738.43056526266;;;19.88825551690534
77385;BMP280;66444;49.680;18.538;2023-07-28T00:16:09;96730.33270481747;;;19.88825551690534
77385;BMP280;66444;49.680;18.538;2023-07-28T00:21:17;96731.51449446379;;;19.878102635452525
77385;BMP280;66444;49.680;18.538;2023-07-28T00:26:24;96731.51449446379;;;19.878102635452525
77385;BMP280;66444;49.680;18.538;2023-07-28T00:31:31;96727.63342303151;;;19.88825551690534
77385;BMP280;66444;49.680;18.538;2023-07-28T00:36:39;96708.40353131981;;;19.867949730716646
77385;BMP280;66444;49.680;18.538;2023-07-28T00:41:48;96709.83188307748;;;19.913637618673967
77385;BMP280;66444;49.680;18.538;2023-07-28T00:46:56;96700.55128359328;;;19.923790418636052
77385;BMP280;66444;49.680;18.538;2023-07-28T00:52:04;96681.04760532979;;;20.01008827826008
77385;BMP280;66444;49.680;18.538;2023-07-28T00:57:13;96674.1317842621;;;19.99993567620404
77385;BMP280;66444;49.680;18.538;2023-07-28T01:02:20;96665.69997340674;;;19.979630402242766
77385;BMP280;66444;49.680;18.538;2023-07-28T01:07:30;96671.94939980854;;;19.949172316677867
77385;BMP280;66444;49.680;18.538;2023-07-28T01:12:43;96665.79228919189;;;19.944095948711038
77385;BMP280;66444;49.680;18.538;2023-07-28T01:17:51;96648.07956082595;;;19.933943195315077
77385;BMP280;66444;49.680;18.538;2023-07-28T01:23:05;96640.31355851848;;;19.954248678823934
77385;BMP280;66444;49.680;18.538;2023-07-28T01:28:15;96638.79775629251;;;19.944095948711038
77385;BMP280;66444;49.680;18.538;2023-07-28T01:33:24;96643.43869834881;;;19.939019574923442
77385;BMP280;66444;49.680;18.538;2023-07-28T01:38:36;96627.24220590148;;;19.939019574923442
77385;BMP280;66444;49.680;18.538;2023-07-28T01:43:44;96619.47546967801;;;19.95932503514923
77385;BMP280;66444;49.680;18.538;2023-07-28T01:48:56;96604.1317774278;;;19.92886680988595
77385;BMP280;66444;49.680;18.538;2023-07-28T01:54:03;96608.34641247714;;;19.939019574923442
77385;BMP280;66444;49.680;18.538;2023-07-28T01:59:11;96609.0084999876;;;19.979630402242766
77385;BMP280;66444;49.680;18.538;2023-07-28T02:04:18;96593.80150998682;;;20.04054594472982
77385;BMP280;66444;49.680;18.538;2023-07-28T02:09:26;96602.23105506053;;;20.060850939294323
77385;BMP280;66444;49.680;18.538;2023-07-28T02:14:39;96603.08577019481;;;20.030393412522972
77385;BMP280;66444;49.680;18.538;2023-07-28T02:19:46;96605.4551097587;;;20.01008827826008
77385;BMP280;66444;49.680;18.538;2023-07-28T02:24:54;96596.17127306604;;;20.02024085703306
77385;BMP280;66444;49.680;18.538;2023-07-28T02:30:01;96593.80150998682;;;20.04054594472982
77385;BMP280;66444;49.680;18.538;2023-07-28T02:35:11;96590.575692558;;;20.091308256518097
77385;BMP280;66444;49.680;18.538;2023-07-28T02:40:19;96601.37585781972;;;20.091308256518097
77385;BMP280;66444;49.680;18.538;2023-07-28T02:45:26;96608.71849817224;;;20.086232051532715
77385;BMP280;66444;49.680;18.538;2023-07-28T02:50:34;96613.69113352022;;;20.101460649026556
77385;BMP280;66444;49.680;18.538;2023-07-28T02:55:41;96614.54587676752;;;20.07100340165198
77385;BMP280;66444;49.680;18.538;2023-07-28T03:00:51;96600.71610041695;;;20.050698453653602
77385;BMP280;66444;49.680;18.538;2023-07-28T03:05:58;96608.48534103441;;;20.030393412522972
77385;BMP280;66444;49.680;18.538;2023-07-28T03:11:06;96614.3118352871;;;20.015164570556955
77385;BMP280;66444;49.680;18.538;2023-07-28T03:16:13;96611.708068807;;;19.979630402242766
77385;BMP280;66444;49.680;18.538;2023-07-28T03:21:21;96604.1317774278;;;19.92886680988595
77385;BMP280;66444;49.680;18.538;2023-07-28T03:26:28;96604.1317774278;;;19.92886680988595
77385;BMP280;66444;49.680;18.538;2023-07-28T03:31:36;96602.7115250379;;;19.883179079089313
77385;BMP280;66444;49.680;18.538;2023-07-28T03:36:43;96610.66394891417;;;19.791802203049883
77385;BMP280;66444;49.680;18.538;2023-07-28T03:41:51;96608.81574481165;;;19.761342825274916
77385;BMP280;66444;49.680;18.538;2023-07-28T03:46:59;96617.00335354445;;;19.725806619692595
77385;BMP280;66444;49.680;18.538;2023-07-28T03:52:06;96608.5749125061;;;19.70550008844584
77385;BMP280;66444;49.680;18.538;2023-07-28T03:57:14;96600.14687078501;;;19.685193464066835
77385;BMP280;66444;49.680;18.538;2023-07-28T04:02:20;96591.3862546616;;;19.64457993591204
77385;BMP280;66444;49.680;18.538;2023-07-28T04:07:25;96585.65712101196;;;19.624273032136262
77385;BMP280;66444;49.680;18.538;2023-07-28T04:12:30;96584.14160958552;;;19.614119545323774
77385;BMP280;66444;49.680;18.538;2023-07-28T04:17:36;96590.7198418034;;;19.603966035228222
77385;BMP280;66444;49.680;18.538;2023-07-28T04:22:41;96599.66188190448;;;19.573505365243182
77385;BMP280;66444;49.680;18.538;2023-07-28T04:27:47;96594.6235816658;;;19.431352801295
77385;BMP280;66444;49.680;18.538;2023-07-28T04:32:52;96598.0905365665;;;19.27396428240463
77385;BMP280;66444;49.680;18.538;2023-07-28T04:37:58;96618.39615013445;;;19.15718854079023
77385;BMP280;66444;49.680;18.538;2023-07-28T04:43:03;96619.40015957943;;;19.055641914717853
77385;BMP280;66444;49.680;18.538;2023-07-28T04:48:09;96608.1017711547;;;18.943937936844303
77385;BMP280;66444;49.680;18.538;2023-07-28T04:53:14;96605.9845710484;;;18.85761929708533
77385;BMP280;66444;49.680;18.538;2023-07-28T04:58:20;96607.73584833957;;;18.761143532535062
77385;BMP280;66444;49.680;18.538;2023-07-28T05:03:25;96616.23636515609;;;18.745910324994476
77385;BMP280;66444;49.680;18.538;2023-07-28T05:08:31;96610.92442381434;;;18.710365970339627
77385;BMP280;66444;49.680;18.538;2023-07-28T05:13:36;96620.33268983634;;;18.62912066010758
77385;BMP280;66444;49.680;18.538;2023-07-28T05:18:42;96621.92489489836;;;18.603731195069848
77385;BMP280;66444;49.680;18.538;2023-07-28T05:23:47;96618.12972584962;;;18.578341584512962
77385;BMP280;66444;49.680;18.538;2023-07-28T05:28:53;96622.68393347021;;;18.60880909971893
77385;BMP280;66444;49.680;18.538;2023-07-28T05:33:59;96624.8118295333;;;18.695132588176058
77385;BMP280;66444;49.680;18.538;2023-07-28T05:39:04;96630.95884720227;;;18.700210388051346
77385;BMP280;66444;49.680;18.538;2023-07-28T05:44:10;96630.95884720227;;;18.700210388051346
77385;BMP280;66444;49.680;18.538;2023-07-28T05:49:15;96627.08876219258;;;18.710365970339627
77385;BMP280;66444;49.680;18.538;2023-07-28T05:54:21;96626.25427401833;;;18.74083257750608
77385;BMP280;66444;49.680;18.538;2023-07-28T05:59:27;96627.61935734873;;;18.82207583882846
77385;BMP280;66444;49.680;18.538;2023-07-28T06:04:32;96630.57751411347;;;18.87792971660383
77385;BMP280;66444;49.680;18.538;2023-07-28T06:09:38;96625.26560440315;;;18.84238642132841
77385;BMP280;66444;49.680;18.538;2023-07-28T06:14:44;96626.10160453073;;;18.811920512653888
77385;BMP280;66444;49.680;18.538;2023-07-28T06:19:50;96638.20717097088;;;18.730677065066992
77385;BMP280;66444;49.680;18.538;2023-07-28T06:24:56;96630.12469455984;;;18.730677065066992
77385;BMP280;66444;49.680;18.538;2023-07-28T06:30:02;96627.08876219258;;;18.710365970339627
77385;BMP280;66444;49.680;18.538;2023-07-28T06:35:10;96646.21491526726;;;18.76622125674039
77385;BMP280;66444;49.680;18.538;2023-07-28T06:40:16;96642.45652287916;;;18.90331761003472
77385;BMP280;66444;49.680;18.538;2023-07-28T06:45:22;96640.28540743412;;;19.0150226123631
77385;BMP280;66444;49.680;18.538;2023-07-28T06:50:27;96634.81483178749;;;19.05056452229619
77385;BMP280;66444;49.680;18.538;2023-07-28T06:55:33;96639.28664786388;;;19.116570169758052
77385;BMP280;66444;49.680;18.538;2023-07-28T07:00:39;96645.53112568645;;;19.248578513553365
77385;BMP280;66444;49.680;18.538;2023-07-28T07:05:44;96645.19298021797;;;19.228269793698566
77385;BMP280;66444;49.680;18.538;2023-07-28T07:10:50;96655.47600958915;;;19.279041418712588
77385;BMP280;66444;49.680;18.538;2023-07-28T07:15:57;96660.11041900517;;;19.27396428240463
77385;BMP280;66444;49.680;18.538;2023-07-28T07:21:03;96658.49708479503;;;19.136879401840268
77385;BMP280;66444;49.680;18.538;2023-07-28T07:26:08;96659.64933116308;;;18.96424796055071
77385;BMP280;66444;49.680;18.538;2023-07-28T07:31:14;96652.55361992188;;;18.862696910696105
77385;BMP280;66444;49.680;18.538;2023-07-28T07:36:20;96644.4693813664;;;18.862696910696105
77385;BMP280;66444;49.680;18.538;2023-07-28T07:41:26;96652.74100775093;;;18.95409296033904
77385;BMP280;66444;49.680;18.538;2023-07-28T07:46:31;96653.10519423072;;;19.136879401840268
77385;BMP280;66444;49.680;18.538;2023-07-28T07:51:37;96648.06178156717;;;19.319658299628646
77385;BMP280;66444;49.680;18.538;2023-07-28T07:56:43;96646.03450411261;;;19.522737116273493
77385;BMP280;66444;49.680;18.538;2023-07-28T08:01:49;96645.59421131655;;;19.70042344108224
77385;BMP280;66444;49.680;18.538;2023-07-28T08:06:54;96639.74178879385;;;19.878102635452525
77385;BMP280;66444;49.680;18.538;2023-07-28T08:12:00;96641.64081253247;;;20.035469681536778
77385;BMP280;66444;49.680;18.538;2023-07-28T08:17:07;96648.83410015854;;;20.228363590873776
77385;BMP280;66444;49.680;18.538;2023-07-28T08:22:13;96644.35145336097;;;20.45170393260196
77385;BMP280;66444;49.680;18.538;2023-07-28T08:27:19;96662.22258280434;;;20.6801085351035
77385;BMP280;66444;49.680;18.538;2023-07-28T08:32:24;96651.73840185572;;;20.700410596001895
77385;BMP280;66444;49.680;18.538;2023-07-28T08:37:30;96658.86599830516;;;20.63950413390994
77385;BMP280;66444;49.680;18.538;2023-07-28T08:42:37;96663.2883928092;;;20.57859683362767
77385;BMP280;66444;49.680;18.538;2023-07-28T08:47:43;96656.57236788193;;;20.497385796066375
77385;BMP280;66444;49.680;18.538;2023-07-28T08:52:49;96666.72241305848;;;20.45677971849218
77385;BMP280;66444;49.680;18.538;2023-07-28T08:57:54;96662.3748490417;;;20.35526289474219
77385;BMP280;66444;49.680;18.538;2023-07-28T09:03:00;96667.36178142973;;;20.08115584072657
77385;BMP280;66444;49.680;18.538;2023-07-28T09:08:06;96674.98211052819;;;19.96947773033753
77385;BMP280;66444;49.680;18.538;2023-07-28T09:13:12;96682.17024756054;;;19.873026185994966
77385;BMP280;66444;49.680;18.538;2023-07-28T09:18:18;96693.23263065283;;;19.766419402789325
77385;BMP280;66444;49.680;18.538;2023-07-28T09:23:27;96689.26378582565;;;19.812108338484542
77385;BMP280;66444;49.680;18.538;2023-07-28T09:28:37;96684.44525643539;;;19.88825551690534
77385;BMP280;66444;49.680;18.538;2023-07-28T09:33:43;96684.08038938508;;;20.030393412522972
77385;BMP280;66444;49.680;18.538;2023-07-28T09:38:49;96683.98494374384;;;20.35526289474219
77385;BMP280;66444;49.680;18.538;2023-07-28T09:43:57;96674.87536506746;;;20.710561591526492
77385;BMP280;66444;49.680;18.538;2023-07-28T09:49:04;96682.56781693801;;;20.85267308414914
77385;BMP280;66444;49.680;18.538;2023-07-28T09:54:12;96690.79347759607;;;20.944028062466533
77385;BMP280;66444;49.680;18.538;2023-07-28T09:59:26;96684.6184769419;;;20.812070266203953
77385;BMP280;66444;49.680;18.538;2023-07-28T10:04:36;96702.33327799919;;;20.695335089508443
77385;BMP280;66444;49.680;18.538;2023-07-28T10:09:42;96706.0623529054;;;20.466931272810324
77385;BMP280;66444;49.680;18.538;2023-07-28T10:14:50;96707.30258251543;;;20.29435168290511
77385;BMP280;66444;49.680;18.538;2023-07-28T10:20:27;96720.99523889164;;;20.223287543049082
77385;BMP280;66444;49.680;18.538;2023-07-28T10:25:38;96724.2140986527;;;20.17252674465999
77385;BMP280;66444;49.680;18.538;2023-07-28T10:30:51;96730.61423693824;;;20.233439632877708
77385;BMP280;66444;49.680;18.538;2023-07-28T10:35:58;96719.04609408996;;;20.517688695155083
77385;BMP280;66444;49.680;18.538;2023-07-28T10:41:05;96720.20916238373;;;20.923727119155227
77385;BMP280;66444;49.680;18.538;2023-07-28T10:46:15;96731.1427993456;;;21.015080630639567
77385;BMP280;66444;49.680;18.538;2023-07-28T10:51:22;96713.6245883165;;;21.187632117886096
77385;BMP280;66444;49.680;18.538;2023-07-28T10:56:29;96721.94939152569;;;21.370326358452438
77385;BMP280;66444;49.680;18.538;2023-07-28T11:01:35;96719.87400646137;;;21.537789452029394
77385;BMP280;66444;49.680;18.538;2023-07-28T11:06:42;96725.28691752504;;;21.537789452029394
77385;BMP280;66444;49.680;18.538;2023-07-28T11:11:50;96721.08105657279;;;21.400774665130303
77385;BMP280;66444;49.680;18.538;2023-07-28T11:16:56;96731.25768243759;;;21.360176876327024
77385;BMP280;66444;49.680;18.538;2023-07-28T11:22:03;96732.00444115224;;;21.492118327878416
77385;BMP280;66444;49.680;18.538;2023-07-28T11:27:09;96746.14078593433;;;21.786435078876092
77385;BMP280;66444;49.680;18.538;2023-07-28T11:32:15;96752.046868292;;;21.989400739828124
77385;BMP280;66444;49.680;18.538;2023-07-28T11:37:21;96747.30432362766;;;21.90314147188328
77385;BMP280;66444;49.680;18.538;2023-07-28T11:42:27;96742.92526108398;;;22.055362574383615
77385;BMP280;66444;49.680;18.538;2023-07-28T11:47:34;96744.46687050405;;;22.501847586967052
77385;BMP280;66444;49.680;18.538;2023-07-28T11:52:40;96738.03434054743;;;23.18670856873505
77385;BMP280;66444;49.680;18.538;2023-07-28T11:57:46;96726.85562323927;;;23.841032168641686
77385;BMP280;66444;49.680;18.538;2023-07-28T12:03:00;96742.08047669605;;;24.363407046860083
77385;BMP280;66444;49.680;18.538;2023-07-28T12:08:08;96771.04976074834;;;24.576396554522216
77385;BMP280;66444;49.680;18.538;2023-07-28T12:13:14;96734.04697176752;;;24.51047232793644
77385;BMP280;66444;49.680;18.538;2023-07-28T12:18:20;96739.07385484081;;;24.25183701645583
77385;BMP280;66444;49.680;18.538;2023-07-28T12:23:26;96729.86472492456;;;24.226479798462243
77385;BMP280;66444;49.680;18.538;2023-07-28T12:28:32;96731.80253441715;;;24.403977268515156
77385;BMP280;66444;49.680;18.538;2023-07-28T12:33:38;96744.4859192191;;;24.434404690284282
77385;BMP280;66444;49.680;18.538;2023-07-28T12:38:49;96724.99594419423;;;24.449618322588503
77385;BMP280;66444;49.680;18.538;2023-07-28T12:43:55;96729.83790657208;;;24.40904852002859
77385;BMP280;66444;49.680;18.538;2023-07-28T12:49:01;96727.37351471029;;;24.611893807537854
77385;BMP280;66444;49.680;18.538;2023-07-28T12:54:07;96709.72711872227;;;25.22544410508126
77385;BMP280;66444;49.680;18.538;2023-07-28T12:59:13;96711.64266557673;;;25.311638558795675
77385;BMP280;66444;49.680;18.538;2023-07-28T13:04:19;96720.91299313625;;;25.484022419620306
77385;BMP280;66444;49.680;18.538;2023-07-28T13:09:25;96717.44869804123;;;26.746275608520953
77385;BMP280;66444;49.680;18.538;2023-07-28T13:14:31;96703.37484228273;;;28.347651601955295
77385;BMP280;66444;49.680;18.538;2023-07-28T13:19:37;96690.52668870497;;;29.482452164962886
77385;BMP280;66444;49.680;18.538;2023-07-28T13:24:43;96707.57028606226;;;30.080131438700484
77385;BMP280;66444;49.680;18.538;2023-07-28T13:29:49;96703.01798531739;;;29.604020616970956
77385;BMP280;66444;49.680;18.538;2023-07-28T13:34:55;96707.25565570273;;;28.22604850474745
77385;BMP280;66444;49.680;18.538;2023-07-28T13:40:02;96711.40517825575;;;28.438851724611595
77385;BMP280;66444;49.680;18.538;2023-07-28T13:45:10;96720.38019709835;;;27.060515465261414
77385;BMP280;66444;49.680;18.538;2023-07-28T13:50:16;96718.24301778928;;;26.310357473557815
77385;BMP280;66444;49.680;18.538;2023-07-28T13:55:23;96720.15980598333;;;25.47895240210928
77385;BMP280;66444;49.680;18.538;2023-07-28T14:00:29;96730.16691810469;;;24.850225119804964
77385;BMP280;66444;49.680;18.538;2023-07-28T14:05:35;96739.07385484081;;;24.25183701645583
77385;BMP280;66444;49.680;18.538;2023-07-28T14:10:43;96750.53865737368;;;23.74466500794515
77385;BMP280;66444;49.680;18.538;2023-07-28T14:15:50;96762.83008014972;;;23.389609968429433
77385;BMP280;66444;49.680;18.538;2023-07-28T14:20:56;96770.15846590837;;;22.89248499656096
77385;BMP280;66444;49.680;18.538;2023-07-28T14:26:02;96761.98790799838;;;22.36486266059801
77385;BMP280;66444;49.680;18.538;2023-07-28T14:31:09;96787.719402704;;;21.847325755050406
77385;BMP280;66444;49.680;18.538;2023-07-28T14:36:15;96766.8485497272;;;21.09120711623691
77385;BMP280;66444;49.680;18.538;2023-07-28T14:41:21;96755.23287773786;;;20.832371721742675
77385;BMP280;66444;49.680;18.538;2023-07-28T14:46:28;96740.1172269468;;;20.984629669692367
77385;BMP280;66444;49.680;18.538;2023-07-28T14:51:34;96726.91416709444;;;21.512416663486512
77385;BMP280;66444;49.680;18.538;2023-07-28T14:56:40;96721.76763520413;;;22.567801778856666
77385;BMP280;66444;49.680;18.538;2023-07-28T15:01:46;96726.4789058633;;;23.364247802784668
77385;BMP280;66444;49.680;18.538;2023-07-28T15:06:52;96724.43387520511;;;23.095399900432675
77385;BMP280;66444;49.680;18.538;2023-07-28T15:11:58;96721.82116639921;;;22.968579176906495
77385;BMP280;66444;49.680;18.538;2023-07-28T15:17:04;96717.2737097311;;;23.33888549162075
77385;BMP280;66444;49.680;18.538;2023-07-28T15:22:11;96715.83651386177;;;24.059118510084225
77385;BMP280;66444;49.680;18.538;2023-07-28T15:27:18;96712.80133775923;;;24.221408337401225
77385;BMP280;66444;49.680;18.538;2023-07-28T15:32:24;96704.65841826805;;;24.13012104295194
77385;BMP280;66444;49.680;18.538;2023-07-28T15:37:30;96712.80133775923;;;24.221408337401225
77385;BMP280;66444;49.680;18.538;2023-07-28T15:42:36;96716.69933752983;;;24.393834748025984
77385;BMP280;66444;49.680;18.538;2023-07-28T15:47:42;96708.56039425162;;;24.30255101588555
77385;BMP280;66444;49.680;18.538;2023-07-28T15:52:48;96699.86009655581;;;25.012485889857636
77385;BMP280;66444;49.680;18.538;2023-07-28T15:57:55;96702.58167492371;;;25.012485889857636
77385;BMP280;66444;49.680;18.538;2023-07-28T16:03:01;96700.16147782671;;;25.894674507249146
77385;BMP280;66444;49.680;18.538;2023-07-28T16:08:07;96704.10992174831;;;25.26093614269048
77385;BMP280;66444;49.680;18.538;2023-07-28T16:13:14;96710.30045883245;;;24.606822788855062
77385;BMP280;66444;49.680;18.538;2023-07-28T16:18:20;96715.52937410392;;;24.13012104295194
77385;BMP280;66444;49.680;18.538;2023-07-28T16:23:26;96708.2925438567;;;23.825816440861672
77385;BMP280;66444;49.680;18.538;2023-07-28T16:28:32;96713.5639232861;;;23.678728371486066
77385;BMP280;66444;49.680;18.538;2023-07-28T16:33:39;96710.83754404187;;;24.226479798462243
77385;BMP280;66444;49.680;18.538;2023-07-28T16:38:45;96709.14502975525;;;25.184881427139043
77385;BMP280;66444;49.680;18.538;2023-07-28T16:43:51;96722.64470701735;;;25.605701093655078
77385;BMP280;66444;49.680;18.538;2023-07-28T16:48:57;96718.89946793007;;;27.455817697197197
77385;BMP280;66444;49.680;18.538;2023-07-28T16:54:04;96711.1777357884;;;28.844162785680965
77385;BMP280;66444;49.680;18.538;2023-07-28T16:59:10;96717.67370730554;;;27.92709330529906
77385;BMP280;66444;49.680;18.538;2023-07-28T17:04:16;96708.37001095485;;;27.587577238166705
77385;BMP280;66444;49.680;18.538;2023-07-28T17:09:22;96725.0712205499;;;28.1247100292705
77385;BMP280;66444;49.680;18.538;2023-07-28T17:14:29;96729.69205377602;;;29.006276779295877
77385;BMP280;66444;49.680;18.538;2023-07-28T17:19:35;96721.92148092839;;;29.472321309288965
77385;BMP280;66444;49.680;18.538;2023-07-28T17:24:41;96728.97697956591;;;29.76104157194495
77385;BMP280;66444;49.680;18.538;2023-07-28T17:29:47;96732.4891656844;;;29.877537375455724
77385;BMP280;66444;49.680;18.538;2023-07-28T17:34:53;96748.9225313488;;;29.76610667090863
77385;BMP280;66444;49.680;18.538;2023-07-28T17:40:00;96748.77335625337;;;29.32035568021238
77385;BMP280;66444;49.680;18.538;2023-07-28T17:45:06;96766.5775010569;;;28.682042831601574
77385;BMP280;66444;49.680;18.538;2023-07-28T17:50:13;96750.38508333114;;;28.07403991841711
77385;BMP280;66444;49.680;18.538;2023-07-28T17:55:20;96770.4224574746;;;26.82737190714106
77385;BMP280;66444;49.680;18.538;2023-07-28T18:00:26;96769.42000206832;;;25.590491442754864
77385;BMP280;66444;49.680;18.538;2023-07-28T18:05:32;96776.44840010726;;;24.758950817305596
77385;BMP280;66444;49.680;18.538;2023-07-28T18:10:39;96774.41440381865;;;24.16055035064928
77385;BMP280;66444;49.680;18.538;2023-07-28T18:15:46;96780.86572700107;;;23.729448948381467
77385;BMP280;66444;49.680;18.538;2023-07-28T18:20:53;96775.47731009954;;;23.32874052640982
77385;BMP280;66444;49.680;18.538;2023-07-28T18:25:59;96785.85795194283;;;22.943214595643802
77385;BMP280;66444;49.680;18.538;2023-07-28T18:31:05;96786.83094908496;;;22.567801778856666
77385;BMP280;66444;49.680;18.538;2023-07-28T18:36:11;96785.74435704866;;;22.32427371935919
77385;BMP280;66444;49.680;18.538;2023-07-28T18:41:18;96779.85336052712;;;22.12132342522964
77385;BMP280;66444;49.680;18.538;2023-07-28T18:46:24;96778.8114592509;;;21.96910459282808
77385;BMP280;66444;49.680;18.538;2023-07-28T18:51:31;96774.50099815051;;;21.867622460843997
77385;BMP280;66444;49.680;18.538;2023-07-28T18:56:37;96787.30298021778;;;21.73569220844656
77385;BMP280;66444;49.680;18.538;2023-07-28T19:01:43;96775.18440072819;;;21.654502405039967
77385;BMP280;66444;49.680;18.538;2023-07-28T19:06:49;96771.50919433046;;;21.593609074596316
77385;BMP280;66444;49.680;18.538;2023-07-28T19:11:56;96786.45445895332;;;21.512416663486512
77385;BMP280;66444;49.680;18.538;2023-07-28T19:17:02;96781.90869117108;;;21.48196912514977
77385;BMP280;66444;49.680;18.538;2023-07-28T19:22:09;96789.05332469837;;;21.421073419833554
77385;BMP280;66444;49.680;18.538;2023-07-28T19:27:21;96793.81475728904;;;21.38047581729479
77385;BMP280;66444;49.680;18.538;2023-07-28T19:32:27;96785.37199326538;;;21.360176876327024
77385;BMP280;66444;49.680;18.538;2023-07-28T19:37:33;96783.85645461844;;;21.350027370918543
77385;BMP280;66444;49.680;18.538;2023-07-28T19:42:40;96784.72099578065;;;21.319578714994712
77385;BMP280;66444;49.680;18.538;2023-07-28T19:47:46;96786.77476019764;;;21.278980181133374
77385;BMP280;66444;49.680;18.538;2023-07-28T19:52:52;96784.93287216657;;;21.248531036265195
77385;BMP280;66444;49.680;18.538;2023-07-28T19:57:59;96791.20613749047;;;21.218081681849434
77385;BMP280;66444;49.680;18.538;2023-07-28T20:03:08;96801.37224049107;;;21.17748221666552
77385;BMP280;66444;49.680;18.538;2023-07-28T20:08:17;96797.68473439488;;;21.11658232039772
77385;BMP280;66444;49.680;18.538;2023-07-28T20:13:26;96804.81406992533;;;21.055681585939602
77385;BMP280;66444;49.680;18.538;2023-07-28T20:18:35;96805.0154792246;;;20.984629669692367
77385;BMP280;66444;49.680;18.538;2023-07-28T20:23:44;96808.5776800165;;;20.95417849919759
77385;BMP280;66444;49.680;18.538;2023-07-28T20:28:53;96814.61109876083;;;20.86789904483594
77385;BMP280;66444;49.680;18.538;2023-07-28T20:34:02;96814.42917003266;;;20.64965526913293
77385;BMP280;66444;49.680;18.538;2023-07-28T20:39:11;96808.33607218384;;;20.3197314563673
77385;BMP280;66444;49.680;18.538;2023-07-28T20:44:20;96815.95437594995;;;20.045622202102095
77385;BMP280;66444;49.680;18.538;2023-07-28T20:49:30;96818.39407461855;;;19.82733787894249
77385;BMP280;66444;49.680;18.538;2023-07-28T20:54:39;96810.62022851958;;;19.685193464066835
77385;BMP280;66444;49.680;18.538;2023-07-28T20:59:49;96825.26052842388;;;19.51258339663036
77385;BMP280;66444;49.680;18.538;2023-07-28T21:04:58;96830.95537898247;;;19.37042887690477
77385;BMP280;66444;49.680;18.538;2023-07-28T21:10:13;96834.63097534304;;;19.26888714027591
77385;BMP280;66444;49.680;18.538;2023-07-28T21:15:41;96831.73273166493;;;19.177497586607934
77385;BMP280;66444;49.680;18.538;2023-07-28T21:20:58;96844.17785294096;;;19.116570169758052
77385;BMP280;66444;49.680;18.538;2023-07-28T21:26:08;96836.71000402885;;;18.994712821487337
77385;BMP280;66444;49.680;18.538;2023-07-28T21:31:17;96846.23420238117;;;18.84238642132841
77385;BMP280;66444;49.680;18.538;2023-07-28T21:36:26;96854.15986313371;;;18.715443752752616
77385;BMP280;66444;49.680;18.538;2023-07-28T21:41:35;96848.01042479643;;;18.710365970339627
77385;BMP280;66444;49.680;18.538;2023-07-28T21:46:44;96843.44536347184;;;18.67989915362559
77385;BMP280;66444;49.680;18.538;2023-07-28T21:51:54;96851.30038234452;;;18.588497446198016
77385;BMP280;66444;49.680;18.538;2023-07-28T21:57:08;96849.1962408365;;;18.46662556929514
77385;BMP280;66444;49.680;18.538;2023-07-28T22:02:17;96856.98214254194;;;18.41076650521718
77385;BMP280;66444;49.680;18.538;2023-07-28T22:07:26;96862.07258211724;;;18.354906736826525
77385;BMP280;66444;49.680;18.538;2023-07-28T22:12:35;96855.6294859387;;;18.29396800440736